sensor_id;sensor_type;location;lat;lon;timestamp;temperature;humidity
25949;DHT22;13961;51.178;4.448;2023-05-10T00:00:36;14.90;99.90
25949;DHT22;13961;51.178;4.448;2023-05-10T00:03:03;15.00;99.90
25949;DHT22;13961;51.178;4.448;2023-05-10T00:05:30;14.90;99.90
25949;DHT22;13961;51.178;4.448;2023-05-10T00:07:56;14.90;99.90
25949;DHT22;13961;51.178;4.448;2023-05-10T00:10:23;15.00;99.90
25949;DHT22;13961;51.178;4.448;2023-05-10T00:12:49;15.10;99.90
25949;DHT22;13961;51.178;4.448;2023-05-10T00:15:15;15.20;99.90
25949;DHT22;13961;51.178;4.448;2023-05-10T00:17:40;15.20;99.90
25949;DHT22;13961;51.178;4.448;2023-05-10T00:20:06;15.10;99.90
25949;DHT22;13961;51.178;4.448;2023-05-10T00:22:32;15.10;99.90
25949;DHT22;13961;51.178;4.448;2023-05-10T00:24:58;15.20;99.90
25949;DHT22;13961;51.178;4.448;2023-05-10T00:27:24;15.00;99.90
25949;DHT22;13961;51.178;4.448;2023-05-10T00:29:50;15.00;99.90
25949;DHT22;13961;51.178;4.448;2023-05-10T00:32:16;15.00;99.90
25949;DHT22;13961;51.178;4.448;2023-05-10T00:34:42;14.90;99.90
25949;DHT22;13961;51.178;4.448;2023-05-10T00:37:08;15.00;99.90
25949;DHT22;13961;51.178;4.448;2023-05-10T00:39:34;15.00;99.90
25949;DHT22;13961;51.178;4.448;2023-05-10T00:42:00;15.00;99.90
25949;DHT22;13961;51.178;4.448;2023-05-10T00:44:25;15.00;99.90
25949;DHT22;13961;51.178;4.448;2023-05-10T00:46:52;14.90;99.90
25949;DHT22;13961;51.178;4.448;2023-05-10T00:49:19;14.90;99.90
25949;DHT22;13961;51.178;4.448;2023-05-10T00:51:45;14.90;99.90
25949;DHT22;13961;51.178;4.448;2023-05-10T00:54:12;14.80;99.90
25949;DHT22;13961;51.178;4.448;2023-05-10T00:56:39;15.00;99.90
25949;DHT22;13961;51.178;4.448;2023-05-10T00:59:10;15.10;99.90
25949;DHT22;13961;51.178;4.448;2023-05-10T01:01:36;15.10;99.90
25949;DHT22;13961;51.178;4.448;2023-05-10T01:04:02;15.00;99.90
25949;DHT22;13961;51.178;4.448;2023-05-10T01:06:28;14.80;99.90
25949;DHT22;13961;51.178;4.448;2023-05-10T01:08:54;14.70;99.90
25949;DHT22;13961;51.178;4.448;2023-05-10T01:11:24;14.80;99.90
25949;DHT22;13961;51.178;4.448;2023-05-10T01:13:55;14.80;99.90
25949;DHT22;13961;51.178;4.448;2023-05-10T01:16:22;14.90;99.90
25949;DHT22;13961;51.178;4.448;2023-05-10T01:18:49;14.70;99.90
25949;DHT22;13961;51.178;4.448;2023-05-10T01:29:35;14.60;99.90
25949;DHT22;13961;51.178;4.448;2023-05-10T01:34:59;14.70;99.90
25949;DHT22;13961;51.178;4.448;2023-05-10T01:37:50;14.70;99.90
25949;DHT22;13961;51.178;4.448;2023-05-10T01:40:25;14.70;99.90
25949;DHT22;13961;51.178;4.448;2023-05-10T01:42:56;14.70;99.90
25949;DHT22;13961;51.178;4.448;2023-05-10T01:45:33;14.70;99.90
25949;DHT22;13961;51.178;4.448;2023-05-10T01:48:11;14.80;99.90
25949;DHT22;13961;51.178;4.448;2023-05-10T01:50:43;14.60;99.90
25949;DHT22;13961;51.178;4.448;2023-05-10T01:53:13;14.70;99.90
25949;DHT22;13961;51.178;4.448;2023-05-10T01:55:45;14.80;99.90
25949;DHT22;13961;51.178;4.448;2023-05-10T01:58:28;14.70;99.90
25949;DHT22;13961;51.178;4.448;2023-05-10T02:00:56;14.80;99.90
25949;DHT22;13961;51.178;4.448;2023-05-10T02:03:24;14.80;99.90
25949;DHT22;13961;51.178;4.448;2023-05-10T02:05:53;14.80;99.90
25949;DHT22;13961;51.178;4.448;2023-05-10T02:08:22;15.00;99.90
25949;DHT22;13961;51.178;4.448;2023-05-10T02:10:49;15.00;99.90
25949;DHT22;13961;51.178;4.448;2023-05-10T02:13:18;14.80;99.90
25949;DHT22;13961;51.178;4.448;2023-05-10T02:15:47;14.70;99.90
25949;DHT22;13961;51.178;4.448;2023-05-10T02:18:16;14.70;99.90
25949;DHT22;13961;51.178;4.448;2023-05-10T02:20:47;14.80;99.90
25949;DHT22;13961;51.178;4.448;2023-05-10T02:23:14;14.70;99.90
25949;DHT22;13961;51.178;4.448;2023-05-10T02:25:41;14.60;99.90
25949;DHT22;13961;51.178;4.448;2023-05-10T02:28:08;14.40;99.90
25949;DHT22;13961;51.178;4.448;2023-05-10T02:30:34;14.50;99.90
25949;DHT22;13961;51.178;4.448;2023-05-10T02:33:04;14.50;99.90
25949;DHT22;13961;51.178;4.448;2023-05-10T02:35:31;14.40;99.90
25949;DHT22;13961;51.178;4.448;2023-05-10T02:37:59;14.50;99.90
25949;DHT22;13961;51.178;4.448;2023-05-10T02:40:26;14.30;99.90
25949;DHT22;13961;51.178;4.448;2023-05-10T02:42:55;14.40;99.90
25949;DHT22;13961;51.178;4.448;2023-05-10T02:45:26;14.30;99.90
25949;DHT22;13961;51.178;4.448;2023-05-10T02:47:53;14.30;99.90
25949;DHT22;13961;51.178;4.448;2023-05-10T02:50:19;14.20;99.90
25949;DHT22;13961;51.178;4.448;2023-05-10T02:52:47;14.10;99.90
25949;DHT22;13961;51.178;4.448;2023-05-10T02:55:16;14.00;99.90
25949;DHT22;13961;51.178;4.448;2023-05-10T02:57:59;14.10;99.90
25949;DHT22;13961;51.178;4.448;2023-05-10T03:00:26;14.10;99.90
25949;DHT22;13961;51.178;4.448;2023-05-10T03:02:52;14.00;99.90
25949;DHT22;13961;51.178;4.448;2023-05-10T03:05:18;14.00;99.90
25949;DHT22;13961;51.178;4.448;2023-05-10T03:07:45;13.90;99.90
25949;DHT22;13961;51.178;4.448;2023-05-10T03:10:11;14.10;99.90
25949;DHT22;13961;51.178;4.448;2023-05-10T03:18:33;13.90;99.90
25949;DHT22;13961;51.178;4.448;2023-05-10T03:21:03;13.80;99.90
25949;DHT22;13961;51.178;4.448;2023-05-10T03:23:47;13.70;99.90
25949;DHT22;13961;51.178;4.448;2023-05-10T03:26:24;13.70;99.90
25949;DHT22;13961;51.178;4.448;2023-05-10T03:28:52;13.70;99.90
25949;DHT22;13961;51.178;4.448;2023-05-10T03:31:19;13.60;99.90
25949;DHT22;13961;51.178;4.448;2023-05-10T03:33:50;13.80;99.90
25949;DHT22;13961;51.178;4.448;2023-05-10T03:36:16;13.70;99.90
25949;DHT22;13961;51.178;4.448;2023-05-10T03:38:42;13.50;99.90
25949;DHT22;13961;51.178;4.448;2023-05-10T03:41:08;13.40;99.90
25949;DHT22;13961;51.178;4.448;2023-05-10T03:43:34;13.50;99.90
25949;DHT22;13961;51.178;4.448;2023-05-10T03:46:04;13.70;99.90
25949;DHT22;13961;51.178;4.448;2023-05-10T03:48:32;13.70;99.90
25949;DHT22;13961;51.178;4.448;2023-05-10T03:50:58;13.70;99.90
25949;DHT22;13961;51.178;4.448;2023-05-10T03:53:24;13.80;99.90
25949;DHT22;13961;51.178;4.448;2023-05-10T03:55:50;13.80;99.90
25949;DHT22;13961;51.178;4.448;2023-05-10T03:58:16;13.90;99.90
25949;DHT22;13961;51.178;4.448;2023-05-10T04:00:41;13.90;99.90
25949;DHT22;13961;51.178;4.448;2023-05-10T04:03:10;13.60;99.90
25949;DHT22;13961;51.178;4.448;2023-05-10T04:05:36;13.60;99.90
25949;DHT22;13961;51.178;4.448;2023-05-10T04:08:02;13.60;99.90
25949;DHT22;13961;51.178;4.448;2023-05-10T04:10:28;13.50;99.90
25949;DHT22;13961;51.178;4.448;2023-05-10T04:12:54;13.50;99.90
25949;DHT22;13961;51.178;4.448;2023-05-10T04:15:20;13.40;99.90
25949;DHT22;13961;51.178;4.448;2023-05-10T04:17:46;13.30;99.90
25949;DHT22;13961;51.178;4.448;2023-05-10T04:20:12;13.40;99.90
25949;DHT22;13961;51.178;4.448;2023-05-10T04:22:38;13.40;99.90
25949;DHT22;13961;51.178;4.448;2023-05-10T04:25:04;13.40;99.90
25949;DHT22;13961;51.178;4.448;2023-05-10T04:27:30;13.60;99.90
25949;DHT22;13961;51.178;4.448;2023-05-10T04:29:56;13.90;99.90
25949;DHT22;13961;51.178;4.448;2023-05-10T04:32:23;14.00;99.90
25949;DHT22;13961;51.178;4.448;2023-05-10T04:34:49;14.00;99.90
25949;DHT22;13961;51.178;4.448;2023-05-10T04:37:16;13.90;99.90
25949;DHT22;13961;51.178;4.448;2023-05-10T04:39:41;13.80;99.90
25949;DHT22;13961;51.178;4.448;2023-05-10T04:42:07;13.70;99.90
25949;DHT22;13961;51.178;4.448;2023-05-10T04:44:33;13.70;99.90
25949;DHT22;13961;51.178;4.448;2023-05-10T04:47:00;13.70;99.90
25949;DHT22;13961;51.178;4.448;2023-05-10T04:49:27;13.60;99.90
25949;DHT22;13961;51.178;4.448;2023-05-10T04:51:53;13.80;99.90
25949;DHT22;13961;51.178;4.448;2023-05-10T04:54:19;13.80;99.90
25949;DHT22;13961;51.178;4.448;2023-05-10T04:56:45;13.90;99.90
25949;DHT22;13961;51.178;4.448;2023-05-10T04:59:11;13.90;99.90
25949;DHT22;13961;51.178;4.448;2023-05-10T05:01:36;13.90;99.90
25949;DHT22;13961;51.178;4.448;2023-05-10T05:04:02;13.70;99.90
25949;DHT22;13961;51.178;4.448;2023-05-10T05:06:28;13.80;99.90
25949;DHT22;13961;51.178;4.448;2023-05-10T05:08:54;13.90;99.90
25949;DHT22;13961;51.178;4.448;2023-05-10T05:11:19;14.00;99.90
25949;DHT22;13961;51.178;4.448;2023-05-10T05:13:46;14.20;99.90
25949;DHT22;13961;51.178;4.448;2023-05-10T05:16:12;14.40;99.90
25949;DHT22;13961;51.178;4.448;2023-05-10T05:18:38;14.30;99.90
25949;DHT22;13961;51.178;4.448;2023-05-10T05:21:14;14.50;99.90
25949;DHT22;13961;51.178;4.448;2023-05-10T05:23:40;14.30;99.90
25949;DHT22;13961;51.178;4.448;2023-05-10T05:26:06;14.20;99.90
25949;DHT22;13961;51.178;4.448;2023-05-10T05:28:32;14.30;99.90
25949;DHT22;13961;51.178;4.448;2023-05-10T05:31:00;14.20;99.90
25949;DHT22;13961;51.178;4.448;2023-05-10T05:33:25;14.30;99.90
25949;DHT22;13961;51.178;4.448;2023-05-10T05:35:51;14.50;99.90
25949;DHT22;13961;51.178;4.448;2023-05-10T05:38:17;14.30;99.90
25949;DHT22;13961;51.178;4.448;2023-05-10T05:40:43;14.40;99.90
25949;DHT22;13961;51.178;4.448;2023-05-10T05:43:08;14.50;99.90
25949;DHT22;13961;51.178;4.448;2023-05-10T05:45:34;14.50;99.90
25949;DHT22;13961;51.178;4.448;2023-05-10T05:48:00;14.70;99.90
25949;DHT22;13961;51.178;4.448;2023-05-10T05:50:26;14.80;99.90
25949;DHT22;13961;51.178;4.448;2023-05-10T05:52:51;14.90;99.90
25949;DHT22;13961;51.178;4.448;2023-05-10T05:55:17;15.00;99.90
25949;DHT22;13961;51.178;4.448;2023-05-10T05:57:43;15.20;99.90
25949;DHT22;13961;51.178;4.448;2023-05-10T06:00:09;15.40;99.90
25949;DHT22;13961;51.178;4.448;2023-05-10T06:02:34;15.50;99.90
25949;DHT22;13961;51.178;4.448;2023-05-10T06:05:00;15.50;99.90
25949;DHT22;13961;51.178;4.448;2023-05-10T06:07:26;15.60;99.90
25949;DHT22;13961;51.178;4.448;2023-05-10T06:09:52;15.30;99.90
25949;DHT22;13961;51.178;4.448;2023-05-10T06:12:17;15.20;99.90
25949;DHT22;13961;51.178;4.448;2023-05-10T06:14:43;15.30;99.90
25949;DHT22;13961;51.178;4.448;2023-05-10T06:17:09;15.40;99.90
25949;DHT22;13961;51.178;4.448;2023-05-10T06:19:34;15.50;99.90
25949;DHT22;13961;51.178;4.448;2023-05-10T06:22:02;15.60;99.90
25949;DHT22;13961;51.178;4.448;2023-05-10T06:24:31;15.90;99.90
25949;DHT22;13961;51.178;4.448;2023-05-10T06:26:59;16.00;99.90
25949;DHT22;13961;51.178;4.448;2023-05-10T06:29:26;16.30;99.90
25949;DHT22;13961;51.178;4.448;2023-05-10T06:31:51;16.30;99.90
25949;DHT22;13961;51.178;4.448;2023-05-10T06:34:17;16.40;99.90
25949;DHT22;13961;51.178;4.448;2023-05-10T06:36:43;16.10;99.90
25949;DHT22;13961;51.178;4.448;2023-05-10T06:39:08;16.10;99.90
25949;DHT22;13961;51.178;4.448;2023-05-10T06:41:37;16.00;99.90
25949;DHT22;13961;51.178;4.448;2023-05-10T06:44:03;15.90;99.90
25949;DHT22;13961;51.178;4.448;2023-05-10T06:46:29;15.90;99.90
25949;DHT22;13961;51.178;4.448;2023-05-10T06:48:55;15.70;99.90
25949;DHT22;13961;51.178;4.448;2023-05-10T06:51:21;15.30;99.90
25949;DHT22;13961;51.178;4.448;2023-05-10T06:53:46;15.30;99.90
25949;DHT22;13961;51.178;4.448;2023-05-10T06:56:12;15.50;99.90
25949;DHT22;13961;51.178;4.448;2023-05-10T06:58:38;15.80;99.90
25949;DHT22;13961;51.178;4.448;2023-05-10T07:01:04;16.00;99.90
25949;DHT22;13961;51.178;4.448;2023-05-10T07:03:31;15.90;99.90
25949;DHT22;13961;51.178;4.448;2023-05-10T07:06:03;15.70;99.90
25949;DHT22;13961;51.178;4.448;2023-05-10T07:08:32;15.70;99.90
25949;DHT22;13961;51.178;4.448;2023-05-10T07:11:02;15.90;99.90
25949;DHT22;13961;51.178;4.448;2023-05-10T07:13:29;15.70;99.90
25949;DHT22;13961;51.178;4.448;2023-05-10T07:15:55;15.40;99.90
25949;DHT22;13961;51.178;4.448;2023-05-10T07:18:21;15.20;99.90
25949;DHT22;13961;51.178;4.448;2023-05-10T07:20:47;15.30;99.90
25949;DHT22;13961;51.178;4.448;2023-05-10T07:23:13;15.50;99.90
25949;DHT22;13961;51.178;4.448;2023-05-10T07:25:38;15.80;99.90
25949;DHT22;13961;51.178;4.448;2023-05-10T07:28:04;15.90;99.90
25949;DHT22;13961;51.178;4.448;2023-05-10T07:30:30;15.80;99.90
25949;DHT22;13961;51.178;4.448;2023-05-10T07:32:56;16.40;99.90
25949;DHT22;13961;51.178;4.448;2023-05-10T07:35:21;17.40;99.90
25949;DHT22;13961;51.178;4.448;2023-05-10T07:37:47;17.70;99.90
25949;DHT22;13961;51.178;4.448;2023-05-10T07:40:13;17.80;99.90
25949;DHT22;13961;51.178;4.448;2023-05-10T07:42:38;17.50;99.90
25949;DHT22;13961;51.178;4.448;2023-05-10T07:45:04;17.40;99.90
25949;DHT22;13961;51.178;4.448;2023-05-10T07:47:30;17.20;99.90
25949;DHT22;13961;51.178;4.448;2023-05-10T07:49:56;17.50;99.90
25949;DHT22;13961;51.178;4.448;2023-05-10T07:52:22;17.20;99.90
25949;DHT22;13961;51.178;4.448;2023-05-10T07:54:48;16.50;99.90
25949;DHT22;13961;51.178;4.448;2023-05-10T07:57:13;16.60;99.90
25949;DHT22;13961;51.178;4.448;2023-05-10T07:59:40;18.40;99.90
25949;DHT22;13961;51.178;4.448;2023-05-10T08:02:06;19.80;99.90
25949;DHT22;13961;51.178;4.448;2023-05-10T08:04:32;20.20;99.90
25949;DHT22;13961;51.178;4.448;2023-05-10T08:06:58;19.50;99.90
25949;DHT22;13961;51.178;4.448;2023-05-10T08:09:23;19.30;99.90
25949;DHT22;13961;51.178;4.448;2023-05-10T08:11:50;20.40;99.90
25949;DHT22;13961;51.178;4.448;2023-05-10T08:14:16;21.50;99.90
25949;DHT22;13961;51.178;4.448;2023-05-10T08:16:43;23.10;99.90
25949;DHT22;13961;51.178;4.448;2023-05-10T08:19:09;23.40;99.90
25949;DHT22;13961;51.178;4.448;2023-05-10T08:21:34;21.70;99.90
25949;DHT22;13961;51.178;4.448;2023-05-10T08:24:01;20.60;99.90
25949;DHT22;13961;51.178;4.448;2023-05-10T08:26:27;20.30;99.90
25949;DHT22;13961;51.178;4.448;2023-05-10T08:28:53;20.70;99.90
25949;DHT22;13961;51.178;4.448;2023-05-10T08:31:19;21.40;99.90
25949;DHT22;13961;51.178;4.448;2023-05-10T08:33:44;21.90;99.90
25949;DHT22;13961;51.178;4.448;2023-05-10T08:36:10;20.70;99.90
25949;DHT22;13961;51.178;4.448;2023-05-10T08:38:37;19.40;99.90
25949;DHT22;13961;51.178;4.448;2023-05-10T08:41:04;18.70;99.90
25949;DHT22;13961;51.178;4.448;2023-05-10T08:43:31;19.70;99.90
25949;DHT22;13961;51.178;4.448;2023-05-10T08:46:00;19.20;99.90
25949;DHT22;13961;51.178;4.448;2023-05-10T08:48:29;19.30;99.90
25949;DHT22;13961;51.178;4.448;2023-05-10T08:50:58;19.60;99.90
25949;DHT22;13961;51.178;4.448;2023-05-10T08:53:26;20.10;99.90
25949;DHT22;13961;51.178;4.448;2023-05-10T08:55:54;20.40;99.90
25949;DHT22;13961;51.178;4.448;2023-05-10T08:58:20;20.30;99.90
25949;DHT22;13961;51.178;4.448;2023-05-10T09:00:48;20.00;99.90
25949;DHT22;13961;51.178;4.448;2023-05-10T09:03:14;19.50;99.90
25949;DHT22;13961;51.178;4.448;2023-05-10T09:05:40;19.20;99.90
25949;DHT22;13961;51.178;4.448;2023-05-10T09:08:08;18.80;99.90
25949;DHT22;13961;51.178;4.448;2023-05-10T09:10:34;18.50;99.90
25949;DHT22;13961;51.178;4.448;2023-05-10T09:13:00;18.10;99.90
25949;DHT22;13961;51.178;4.448;2023-05-10T09:15:26;18.20;99.90
25949;DHT22;13961;51.178;4.448;2023-05-10T09:17:51;18.10;99.90
25949;DHT22;13961;51.178;4.448;2023-05-10T09:20:17;18.40;99.90
25949;DHT22;13961;51.178;4.448;2023-05-10T09:22:43;18.00;99.90
25949;DHT22;13961;51.178;4.448;2023-05-10T09:25:14;17.40;99.90
25949;DHT22;13961;51.178;4.448;2023-05-10T09:27:41;17.10;99.90
25949;DHT22;13961;51.178;4.448;2023-05-10T09:30:08;17.20;99.90
25949;DHT22;13961;51.178;4.448;2023-05-10T09:32:41;17.10;99.90
25949;DHT22;13961;51.178;4.448;2023-05-10T09:35:18;16.90;99.90
25949;DHT22;13961;51.178;4.448;2023-05-10T09:37:49;16.80;99.90
25949;DHT22;13961;51.178;4.448;2023-05-10T09:40:19;16.70;99.90
25949;DHT22;13961;51.178;4.448;2023-05-10T09:45:22;16.60;99.90
25949;DHT22;13961;51.178;4.448;2023-05-10T09:47:49;16.80;99.90
25949;DHT22;13961;51.178;4.448;2023-05-10T09:50:15;17.00;99.90
25949;DHT22;13961;51.178;4.448;2023-05-10T09:52:51;17.50;99.90
25949;DHT22;13961;51.178;4.448;2023-05-10T09:55:19;18.20;99.90
25949;DHT22;13961;51.178;4.448;2023-05-10T09:57:46;18.30;99.90
25949;DHT22;13961;51.178;4.448;2023-05-10T10:00:19;17.80;99.90
25949;DHT22;13961;51.178;4.448;2023-05-10T10:02:47;17.40;99.90
25949;DHT22;13961;51.178;4.448;2023-05-10T10:05:13;17.40;99.90
25949;DHT22;13961;51.178;4.448;2023-05-10T10:07:39;17.60;99.90
25949;DHT22;13961;51.178;4.448;2023-05-10T10:10:05;17.60;99.90
25949;DHT22;13961;51.178;4.448;2023-05-10T10:12:37;18.00;99.90
25949;DHT22;13961;51.178;4.448;2023-05-10T10:15:03;18.60;99.90
25949;DHT22;13961;51.178;4.448;2023-05-10T10:17:30;19.00;99.90
25949;DHT22;13961;51.178;4.448;2023-05-10T10:19:57;19.10;99.90
25949;DHT22;13961;51.178;4.448;2023-05-10T10:22:23;19.50;99.90
25949;DHT22;13961;51.178;4.448;2023-05-10T10:24:50;19.80;99.90
25949;DHT22;13961;51.178;4.448;2023-05-10T10:27:26;19.50;99.90
25949;DHT22;13961;51.178;4.448;2023-05-10T10:33:27;18.30;99.90
25949;DHT22;13961;51.178;4.448;2023-05-10T10:35:55;18.60;99.90
25949;DHT22;13961;51.178;4.448;2023-05-10T10:38:23;18.50;99.90
25949;DHT22;13961;51.178;4.448;2023-05-10T10:41:03;18.80;99.90
25949;DHT22;13961;51.178;4.448;2023-05-10T10:43:33;18.80;99.90
25949;DHT22;13961;51.178;4.448;2023-05-10T10:46:12;19.10;99.90
25949;DHT22;13961;51.178;4.448;2023-05-10T10:48:47;19.50;99.90
25949;DHT22;13961;51.178;4.448;2023-05-10T10:51:13;19.40;99.90
25949;DHT22;13961;51.178;4.448;2023-05-10T10:53:40;18.90;99.90
25949;DHT22;13961;51.178;4.448;2023-05-10T10:56:08;18.50;99.90
25949;DHT22;13961;51.178;4.448;2023-05-10T10:58:35;18.10;99.90
25949;DHT22;13961;51.178;4.448;2023-05-10T11:01:13;18.10;99.90
25949;DHT22;13961;51.178;4.448;2023-05-10T11:03:40;18.00;99.90
25949;DHT22;13961;51.178;4.448;2023-05-10T11:06:06;18.10;99.90
25949;DHT22;13961;51.178;4.448;2023-05-10T11:08:34;18.20;99.90
25949;DHT22;13961;51.178;4.448;2023-05-10T11:11:06;17.60;99.90
25949;DHT22;13961;51.178;4.448;2023-05-10T11:13:43;17.40;99.90
25949;DHT22;13961;51.178;4.448;2023-05-10T11:16:18;17.40;99.90
25949;DHT22;13961;51.178;4.448;2023-05-10T11:19:02;17.30;99.90
25949;DHT22;13961;51.178;4.448;2023-05-10T11:21:32;17.20;99.90
25949;DHT22;13961;51.178;4.448;2023-05-10T11:24:01;17.20;99.90
25949;DHT22;13961;51.178;4.448;2023-05-10T11:26:31;17.00;99.90
25949;DHT22;13961;51.178;4.448;2023-05-10T11:28:58;16.90;99.90
25949;DHT22;13961;51.178;4.448;2023-05-10T11:31:26;16.80;99.90
25949;DHT22;13961;51.178;4.448;2023-05-10T11:33:57;17.00;99.90
25949;DHT22;13961;51.178;4.448;2023-05-10T11:36:36;16.90;99.90
25949;DHT22;13961;51.178;4.448;2023-05-10T11:39:02;16.90;99.90
25949;DHT22;13961;51.178;4.448;2023-05-10T11:41:29;16.80;99.90
25949;DHT22;13961;51.178;4.448;2023-05-10T11:43:56;16.90;99.90
25949;DHT22;13961;51.178;4.448;2023-05-10T11:46:26;16.90;99.90
25949;DHT22;13961;51.178;4.448;2023-05-10T11:49:02;16.80;99.90
25949;DHT22;13961;51.178;4.448;2023-05-10T11:51:32;16.90;99.90
25949;DHT22;13961;51.178;4.448;2023-05-10T11:53:58;17.20;99.90
25949;DHT22;13961;51.178;4.448;2023-05-10T11:56:24;17.30;99.90
25949;DHT22;13961;51.178;4.448;2023-05-10T11:58:57;17.30;99.90
25949;DHT22;13961;51.178;4.448;2023-05-10T12:01:25;17.50;99.90
25949;DHT22;13961;51.178;4.448;2023-05-10T12:03:53;17.30;99.90
25949;DHT22;13961;51.178;4.448;2023-05-10T12:06:20;17.40;99.90
25949;DHT22;13961;51.178;4.448;2023-05-10T12:08:47;17.40;99.90
25949;DHT22;13961;51.178;4.448;2023-05-10T12:11:13;17.40;99.90
25949;DHT22;13961;51.178;4.448;2023-05-10T12:13:43;17.70;99.90
25949;DHT22;13961;51.178;4.448;2023-05-10T12:16:17;17.60;99.90
25949;DHT22;13961;51.178;4.448;2023-05-10T12:18:43;17.50;99.90
25949;DHT22;13961;51.178;4.448;2023-05-10T12:21:12;17.40;99.90
25949;DHT22;13961;51.178;4.448;2023-05-10T12:23:39;17.20;99.90
25949;DHT22;13961;51.178;4.448;2023-05-10T12:26:05;17.20;99.90
25949;DHT22;13961;51.178;4.448;2023-05-10T12:28:32;17.10;99.90
25949;DHT22;13961;51.178;4.448;2023-05-10T12:30:59;17.20;99.90
25949;DHT22;13961;51.178;4.448;2023-05-10T12:33:25;17.00;99.90
25949;DHT22;13961;51.178;4.448;2023-05-10T12:35:53;17.20;99.90
25949;DHT22;13961;51.178;4.448;2023-05-10T12:38:31;17.30;99.90
25949;DHT22;13961;51.178;4.448;2023-05-10T12:41:08;17.80;99.90
25949;DHT22;13961;51.178;4.448;2023-05-10T12:43:35;18.00;99.90
25949;DHT22;13961;51.178;4.448;2023-05-10T12:46:15;17.90;99.90
25949;DHT22;13961;51.178;4.448;2023-05-10T12:48:42;18.00;99.90
25949;DHT22;13961;51.178;4.448;2023-05-10T12:51:09;18.20;99.90
25949;DHT22;13961;51.178;4.448;2023-05-10T12:53:37;18.40;99.90
25949;DHT22;13961;51.178;4.448;2023-05-10T12:56:03;18.30;99.90
25949;DHT22;13961;51.178;4.448;2023-05-10T12:58:29;18.30;99.90
25949;DHT22;13961;51.178;4.448;2023-05-10T13:00:55;18.20;99.90
25949;DHT22;13961;51.178;4.448;2023-05-10T13:03:22;18.30;99.90
25949;DHT22;13961;51.178;4.448;2023-05-10T13:05:48;18.50;99.90
25949;DHT22;13961;51.178;4.448;2023-05-10T13:08:14;18.30;99.90
25949;DHT22;13961;51.178;4.448;2023-05-10T13:10:40;18.40;99.90
25949;DHT22;13961;51.178;4.448;2023-05-10T13:13:06;18.60;99.90
25949;DHT22;13961;51.178;4.448;2023-05-10T13:15:32;18.30;99.90
25949;DHT22;13961;51.178;4.448;2023-05-10T13:17:58;17.80;99.90
25949;DHT22;13961;51.178;4.448;2023-05-10T13:20:24;18.10;99.90
25949;DHT22;13961;51.178;4.448;2023-05-10T13:22:51;18.10;99.90
25949;DHT22;13961;51.178;4.448;2023-05-10T13:25:17;18.00;99.90
25949;DHT22;13961;51.178;4.448;2023-05-10T13:27:42;17.90;99.90
25949;DHT22;13961;51.178;4.448;2023-05-10T13:30:09;17.70;99.90
25949;DHT22;13961;51.178;4.448;2023-05-10T13:32:35;17.70;99.90
25949;DHT22;13961;51.178;4.448;2023-05-10T13:35:01;17.70;99.90
25949;DHT22;13961;51.178;4.448;2023-05-10T13:37:29;17.70;99.90
25949;DHT22;13961;51.178;4.448;2023-05-10T13:39:55;17.70;99.90
25949;DHT22;13961;51.178;4.448;2023-05-10T13:42:22;17.50;99.90
25949;DHT22;13961;51.178;4.448;2023-05-10T13:44:48;17.80;99.90
25949;DHT22;13961;51.178;4.448;2023-05-10T13:47:14;17.90;99.90
25949;DHT22;13961;51.178;4.448;2023-05-10T13:49:40;18.00;99.90
25949;DHT22;13961;51.178;4.448;2023-05-10T13:52:05;17.70;99.90
25949;DHT22;13961;51.178;4.448;2023-05-10T13:54:33;17.60;99.90
25949;DHT22;13961;51.178;4.448;2023-05-10T13:56:59;17.70;99.90
25949;DHT22;13961;51.178;4.448;2023-05-10T13:59:25;17.60;99.90
25949;DHT22;13961;51.178;4.448;2023-05-10T14:01:51;17.40;99.90
25949;DHT22;13961;51.178;4.448;2023-05-10T14:04:16;17.40;99.90
25949;DHT22;13961;51.178;4.448;2023-05-10T14:06:42;16.80;99.90
25949;DHT22;13961;51.178;4.448;2023-05-10T14:09:08;16.90;99.90
25949;DHT22;13961;51.178;4.448;2023-05-10T14:11:34;17.10;99.90
25949;DHT22;13961;51.178;4.448;2023-05-10T14:13:59;17.10;99.90
25949;DHT22;13961;51.178;4.448;2023-05-10T14:16:25;17.40;99.90
25949;DHT22;13961;51.178;4.448;2023-05-10T14:18:52;17.60;99.90
25949;DHT22;13961;51.178;4.448;2023-05-10T14:21:18;17.70;99.90
25949;DHT22;13961;51.178;4.448;2023-05-10T14:23:44;17.80;99.90
25949;DHT22;13961;51.178;4.448;2023-05-10T14:26:09;17.70;99.90
25949;DHT22;13961;51.178;4.448;2023-05-10T14:28:35;17.90;99.90
25949;DHT22;13961;51.178;4.448;2023-05-10T14:31:01;17.90;99.90
25949;DHT22;13961;51.178;4.448;2023-05-10T14:33:26;18.00;99.90
25949;DHT22;13961;51.178;4.448;2023-05-10T14:35:53;17.80;99.90
25949;DHT22;13961;51.178;4.448;2023-05-10T14:38:22;17.60;99.90
25949;DHT22;13961;51.178;4.448;2023-05-10T14:40:49;17.30;99.90
25949;DHT22;13961;51.178;4.448;2023-05-10T14:43:15;17.60;99.90
25949;DHT22;13961;51.178;4.448;2023-05-10T14:45:40;18.00;99.90
25949;DHT22;13961;51.178;4.448;2023-05-10T14:48:06;18.20;99.90
25949;DHT22;13961;51.178;4.448;2023-05-10T14:50:36;18.40;99.90
25949;DHT22;13961;51.178;4.448;2023-05-10T14:53:02;18.50;99.90
25949;DHT22;13961;51.178;4.448;2023-05-10T14:55:28;19.00;99.90
25949;DHT22;13961;51.178;4.448;2023-05-10T14:57:53;19.20;99.90
25949;DHT22;13961;51.178;4.448;2023-05-10T15:00:20;18.80;99.90
25949;DHT22;13961;51.178;4.448;2023-05-10T15:02:45;19.00;99.90
25949;DHT22;13961;51.178;4.448;2023-05-10T15:05:12;19.00;99.90
25949;DHT22;13961;51.178;4.448;2023-05-10T15:07:38;18.80;99.90
25949;DHT22;13961;51.178;4.448;2023-05-10T15:10:07;17.80;99.90
25949;DHT22;13961;51.178;4.448;2023-05-10T15:12:33;17.00;99.90
25949;DHT22;13961;51.178;4.448;2023-05-10T15:14:59;16.00;99.90
25949;DHT22;13961;51.178;4.448;2023-05-10T15:17:24;15.50;99.90
25949;DHT22;13961;51.178;4.448;2023-05-10T15:19:50;15.10;99.90
25949;DHT22;13961;51.178;4.448;2023-05-10T15:22:16;15.20;99.90
25949;DHT22;13961;51.178;4.448;2023-05-10T15:24:41;15.10;99.90
25949;DHT22;13961;51.178;4.448;2023-05-10T15:27:07;15.60;99.90
25949;DHT22;13961;51.178;4.448;2023-05-10T15:29:33;15.50;99.90
25949;DHT22;13961;51.178;4.448;2023-05-10T15:32:01;15.40;99.90
25949;DHT22;13961;51.178;4.448;2023-05-10T15:34:27;15.20;99.90
25949;DHT22;13961;51.178;4.448;2023-05-10T15:36:56;15.20;99.90
25949;DHT22;13961;51.178;4.448;2023-05-10T15:39:21;15.50;99.90
25949;DHT22;13961;51.178;4.448;2023-05-10T15:41:47;15.90;99.90
25949;DHT22;13961;51.178;4.448;2023-05-10T15:44:13;15.60;99.90
25949;DHT22;13961;51.178;4.448;2023-05-10T15:46:38;15.90;99.90
25949;DHT22;13961;51.178;4.448;2023-05-10T15:49:04;16.10;99.90
25949;DHT22;13961;51.178;4.448;2023-05-10T15:51:32;16.20;99.90
25949;DHT22;13961;51.178;4.448;2023-05-10T15:53:58;16.00;99.90